Idaho Falls Regional Airport Idaho Falls US
ICAO: KIDA
IATA: IDA
Category: Medium
Scheduled Services: Yes

Elevation: 4744 ft
TransAlt. 18000 ft.

Airport Communications:
ASOS:135.325
ATIS:135.325
SALT LAKE CITY CNTR:128.35
CTAF:118.5
GND:121.7
BOISE RDO:122.55
TWR:118.5
UNICOM:122.95

KIDA Zoom In..

If Map Doesn't Load, Click Here

Runways:

(A) RW 02 length 9002 ft width 150 ft
---- / hdg 23

(B) RW 17 length 4051 ft width 75 ft
---- / hdg 167

(C) RW 20 length 9002 ft width 150 ft
ILS 111.10 / hdg 203

(D) RW 35 length 4051 ft width 75 ft
---- / hdg 347

Location; KIDA
Day. 21 / Time. 15.53 Zulu
* Altimeter: 30.26
* Temperature: 09° c. 48.2°f.
* Wind from: 000° Speed 00 kn.
Dewpoint: -03° c.
Visibility: 10 Statute Miles.
Clouds: Clear (automated report).

KIDA 211553Z 00000KT 10SM CLR 09/M03 A3026 RMK AO2 SLP232 T00941033


Wind - Calm.

 
 
jpsmedia.com for Web Design worldairports.se 2018   terms of use